createdAt,value
2019-01-22T00:01:17.257Z,95.13
2019-01-22T00:03:46.816Z,95.18
2019-01-22T00:06:16.887Z,95.26
2019-01-22T00:08:46.436Z,95.38
2019-01-22T00:11:16.083Z,95.48
2019-01-22T00:13:45.651Z,95.48
2019-01-22T00:16:15.235Z,95.53
2019-01-22T00:18:44.798Z,95.55
2019-01-22T00:21:14.448Z,95.61
2019-01-22T00:23:44.013Z,95.64
2019-01-22T00:26:13.591Z,95.55
2019-01-22T00:28:43.150Z,95.48
2019-01-22T00:31:12.717Z,95.45
2019-01-22T00:33:42.309Z,95.44
2019-01-22T00:36:11.969Z,95.39
2019-01-22T00:38:41.507Z,95.43
2019-01-22T00:41:11.070Z,95.50
2019-01-22T00:43:40.656Z,95.48
2019-01-22T00:46:10.565Z,95.50
2019-01-22T00:48:40.218Z,95.58
2019-01-22T00:51:09.802Z,95.67
2019-01-22T00:53:39.357Z,95.65
2019-01-22T00:56:08.990Z,95.75
2019-01-22T00:58:39.042Z,95.78
2019-01-22T01:01:08.665Z,95.85
2019-01-22T01:03:38.247Z,95.88
2019-01-22T01:06:08.050Z,95.92
2019-01-22T01:08:37.627Z,95.94
2019-01-22T01:11:07.254Z,95.99
2019-01-22T01:13:36.841Z,96.05
2019-01-22T01:16:06.624Z,95.99
2019-01-22T01:18:36.288Z,95.98
2019-01-22T01:21:05.818Z,95.86
2019-01-22T01:23:35.430Z,95.71
2019-01-22T01:26:05.237Z,95.67
2019-01-22T01:28:34.823Z,95.66
2019-01-22T01:31:04.446Z,95.69
2019-01-22T01:33:34.037Z,95.64
2019-01-22T01:36:03.586Z,95.61
2019-01-22T01:38:33.653Z,95.60
2019-01-22T01:41:03.208Z,95.53
2019-01-22T01:43:32.790Z,95.42
2019-01-22T01:46:02.411Z,95.28
2019-01-22T01:48:31.999Z,95.23
2019-01-22T01:51:01.565Z,95.20
2019-01-22T01:53:31.144Z,95.25
2019-01-22T01:56:00.692Z,95.36
2019-01-22T01:58:30.277Z,95.32
2019-01-22T02:01:00.071Z,95.33
2019-01-22T02:03:29.667Z,95.40
2019-01-22T02:05:59.502Z,95.52
2019-01-22T02:08:29.083Z,95.65
2019-01-22T02:10:58.654Z,95.75
2019-01-22T02:13:28.394Z,95.77
2019-01-22T02:16:02.658Z,95.80
2019-01-22T02:18:57.952Z,95.79
2019-01-22T02:22:10.256Z,95.76
2019-01-22T02:25:05.660Z,95.60
2019-01-22T02:27:40.206Z,95.39
2019-01-22T02:30:29.721Z,95.20
2019-01-22T02:33:34.575Z,95.06
2019-01-22T02:36:43.740Z,94.84
2019-01-22T02:39:32.780Z,94.54
2019-01-22T02:42:10.099Z,94.28
2019-01-22T02:45:08.634Z,94.20
2019-01-22T02:47:54.834Z,94.14
2019-01-22T02:50:37.725Z,94.02
2019-01-22T02:53:14.888Z,93.89
2019-01-22T02:55:57.798Z,93.84
2019-01-22T02:58:47.091Z,93.83
2019-01-22T03:01:39.553Z,93.89
2019-01-22T03:04:22.320Z,93.86
2019-01-22T03:07:05.740Z,93.79
2019-01-22T03:09:48.864Z,93.80
2019-01-22T03:12:41.402Z,93.80
2019-01-22T03:15:47.489Z,93.72
2019-01-22T03:18:33.503Z,93.60
2019-01-22T03:21:48.825Z,93.49
2019-01-22T03:24:49.904Z,93.52
2019-01-22T03:27:26.946Z,93.39
2019-01-22T03:30:33.028Z,93.36
2019-01-22T03:33:15.438Z,93.43
2019-01-22T03:36:32.799Z,93.40
2019-01-22T03:39:22.042Z,93.53
2019-01-22T03:42:16.707Z,93.60
2019-01-22T03:45:23.139Z,93.77
2019-01-22T03:48:03.055Z,93.87
2019-01-22T03:50:58.704Z,93.75
2019-01-22T03:53:54.010Z,93.75
2019-01-22T03:56:34.000Z,93.75
2019-01-22T03:59:03.554Z,93.83
2019-01-22T04:01:33.456Z,93.82
2019-01-22T04:04:03.388Z,93.77
2019-01-22T04:06:32.940Z,93.69
2019-01-22T04:09:06.556Z,93.61
2019-01-22T04:11:36.341Z,93.60
2019-01-22T04:14:06.138Z,93.62
2019-01-22T04:16:36.048Z,93.59
2019-01-22T04:19:05.877Z,93.40
2019-01-22T04:21:36.037Z,93.22
2019-01-22T04:24:31.257Z,93.03
2019-01-22T04:27:20.535Z,92.88
2019-01-22T04:30:28.305Z,92.59
2019-01-22T04:33:43.375Z,92.45
2019-01-22T04:36:32.367Z,92.12
2019-01-22T04:39:23.468Z,91.79
2019-01-22T04:42:03.907Z,91.72
2019-01-22T04:44:50.255Z,91.60
2019-01-22T04:47:42.621Z,91.51
2019-01-22T04:50:22.198Z,91.46
2019-01-22T04:53:11.517Z,91.40
2019-01-22T04:55:57.805Z,91.29
2019-01-22T04:58:44.236Z,91.21
2019-01-22T05:01:32.781Z,91.15
2019-01-22T05:04:28.457Z,91.02
2019-01-22T05:07:24.666Z,90.93
2019-01-22T05:10:24.368Z,90.87
2019-01-22T05:13:15.429Z,90.81
2019-01-22T05:16:12.491Z,90.63
2019-01-22T05:18:52.103Z,90.50
2019-01-22T05:21:35.420Z,90.39
2019-01-22T05:24:30.891Z,90.43
2019-01-22T05:27:32.536Z,90.49
2019-01-22T05:30:28.933Z,90.49
2019-01-22T05:33:21.325Z,90.45
2019-01-22T05:36:24.564Z,90.40
2019-01-22T05:39:13.393Z,90.37
2019-01-22T05:42:04.029Z,90.34
2019-01-22T05:44:53.209Z,90.34
2019-01-22T05:47:36.060Z,90.37
2019-01-22T05:50:43.462Z,90.43
2019-01-22T05:53:35.675Z,90.39
2019-01-22T05:56:18.045Z,90.22
2019-01-22T05:59:11.761Z,90.18
2019-01-22T06:01:54.913Z,90.15
2019-01-22T06:05:06.673Z,90.14
2019-01-22T06:08:09.630Z,90.31
2019-01-22T06:11:14.146Z,90.33
2019-01-22T06:13:54.226Z,90.37
2019-01-22T06:16:48.272Z,90.38
2019-01-22T06:19:28.816Z,90.41
2019-01-22T06:22:42.391Z,90.42
2019-01-22T06:25:34.529Z,90.51
2019-01-22T06:28:32.513Z,90.41
2019-01-22T06:31:21.698Z,90.39
2019-01-22T06:33:58.918Z,90.33
2019-01-22T06:37:06.906Z,90.28
2019-01-22T06:39:43.807Z,90.23
2019-01-22T06:42:21.016Z,90.04
2019-01-22T06:45:14.709Z,90.00
2019-01-22T06:48:16.869Z,89.87
2019-01-22T06:51:25.409Z,89.75
2019-01-22T06:54:08.407Z,89.69
2019-01-22T06:56:51.489Z,89.48
2019-01-22T06:59:38.201Z,89.51
2019-01-22T07:02:18.366Z,89.58
2019-01-22T07:05:40.407Z,89.57
2019-01-22T07:08:23.323Z,89.54
2019-01-22T07:11:28.241Z,89.35
2019-01-22T07:14:27.941Z,89.32
2019-01-22T07:17:07.869Z,89.20
2019-01-22T07:20:09.296Z,89.01
2019-01-22T07:22:49.122Z,89.01
2019-01-22T07:25:41.365Z,88.95
2019-01-22T07:28:30.539Z,88.94
2019-01-22T07:31:16.945Z,88.81
2019-01-22T07:34:18.301Z,88.75
2019-01-22T07:37:16.739Z,88.65
2019-01-22T07:40:02.846Z,88.51
2019-01-22T07:42:45.913Z,88.36
2019-01-22T07:45:48.186Z,88.29
2019-01-22T07:48:22.446Z,88.20
2019-01-22T07:51:15.228Z,88.06
2019-01-22T07:53:52.173Z,87.91
2019-01-22T07:56:29.002Z,87.76
2019-01-22T07:59:12.060Z,87.64
2019-01-22T08:02:01.374Z,87.58
2019-01-22T08:05:04.577Z,87.45
2019-01-22T08:08:18.416Z,87.39
2019-01-22T08:11:19.357Z,87.22
2019-01-22T08:13:59.393Z,86.95
2019-01-22T08:16:59.505Z,86.75
2019-01-22T08:20:02.841Z,86.63
2019-01-22T08:23:02.912Z,86.45
2019-01-22T08:25:57.663Z,86.17
2019-01-22T08:29:06.864Z,85.92
2019-01-22T08:31:52.526Z,85.81
2019-01-22T08:34:41.051Z,85.72
2019-01-22T08:37:54.927Z,85.57
2019-01-22T08:40:38.044Z,85.50
2019-01-22T08:43:30.264Z,85.21
2019-01-22T08:46:10.402Z,85.09
2019-01-22T08:49:05.570Z,84.76
2019-01-22T08:51:51.536Z,84.45
2019-01-22T08:55:00.527Z,84.02
2019-01-22T08:57:59.090Z,83.83
2019-01-22T09:00:45.287Z,83.76
2019-01-22T09:03:40.453Z,83.70
2019-01-22T09:06:19.884Z,83.45
2019-01-22T09:09:00.045Z,82.94
2019-01-22T09:11:43.319Z,82.62
2019-01-22T09:14:37.946Z,82.25
2019-01-22T09:17:30.517Z,81.99
2019-01-22T09:20:13.972Z,81.75
2019-01-22T09:22:50.776Z,81.34
2019-01-22T09:25:37.002Z,80.96
2019-01-22T09:28:13.960Z,80.82
2019-01-22T09:31:09.270Z,80.87
2019-01-22T09:33:52.115Z,80.20
2019-01-22T09:36:29.199Z,78.82
2019-01-22T09:38:59.282Z,77.24
2019-01-22T09:41:28.890Z,75.32
2019-01-22T09:43:58.440Z,73.50
2019-01-22T09:46:28.019Z,71.93
2019-01-22T09:48:57.562Z,70.36
2019-01-22T09:51:27.273Z,68.86
2019-01-22T09:53:56.829Z,67.77
2019-01-22T09:56:26.402Z,67.18
2019-01-22T09:58:55.952Z,66.52
2019-01-22T10:01:25.599Z,65.56
2019-01-22T10:03:55.142Z,64.49
2019-01-22T10:06:26.041Z,64.36
2019-01-22T10:08:55.748Z,64.55
2019-01-22T10:11:25.442Z,64.23
2019-01-22T10:13:55.054Z,63.04
2019-01-22T10:16:24.689Z,62.47
2019-01-22T10:18:54.244Z,61.95
2019-01-22T10:21:23.820Z,61.61
2019-01-22T10:23:53.395Z,61.32
2019-01-22T10:26:22.981Z,61.16
2019-01-22T10:28:52.529Z,61.38
2019-01-22T10:31:22.110Z,61.42
2019-01-22T10:33:51.033Z,60.99
2019-01-22T10:36:20.966Z,60.99
2019-01-22T10:38:49.756Z,61.21
2019-01-22T10:41:19.478Z,61.33
2019-01-22T10:43:49.151Z,61.39
2019-01-22T10:46:17.873Z,61.44
2019-01-22T10:48:47.553Z,61.64
2019-01-22T10:51:16.359Z,62.24
2019-01-22T10:53:45.127Z,62.84
2019-01-22T10:56:15.151Z,63.20
2019-01-22T10:58:44.727Z,63.35
2019-01-22T11:01:14.434Z,63.12
2019-01-22T11:03:43.322Z,63.09
2019-01-22T11:06:12.093Z,63.37
2019-01-22T11:08:40.854Z,63.53
2019-01-22T11:11:09.795Z,63.79
2019-01-22T11:13:38.571Z,64.20
2019-01-22T11:16:07.348Z,64.77
2019-01-22T11:18:36.133Z,65.30
2019-01-22T11:21:05.075Z,65.96
2019-01-22T11:23:33.841Z,66.51
2019-01-22T11:26:02.633Z,66.96
2019-01-22T11:28:31.534Z,67.30
2019-01-22T11:31:01.209Z,67.43
2019-01-22T11:33:33.444Z,67.79
2019-01-22T11:36:02.585Z,68.25
2019-01-22T11:38:32.213Z,68.70
2019-01-22T11:41:01.804Z,69.02
2019-01-22T11:43:31.462Z,69.34
2019-01-22T11:46:01.079Z,69.63
2019-01-22T11:48:30.723Z,69.92
2019-01-22T11:51:00.274Z,70.13
2019-01-22T11:53:29.840Z,70.21
2019-01-22T11:55:59.516Z,70.38
2019-01-22T11:58:29.218Z,70.60
2019-01-22T12:00:58.770Z,70.79
2019-01-22T12:03:28.466Z,70.94
2019-01-22T12:05:58.020Z,71.13
2019-01-22T12:08:27.993Z,71.25
2019-01-22T12:10:57.613Z,71.35
2019-01-22T12:13:27.302Z,71.42
2019-01-22T12:15:56.867Z,71.56
2019-01-22T12:18:26.628Z,71.60
2019-01-22T12:20:56.276Z,71.67
2019-01-22T12:23:25.818Z,71.75
2019-01-22T12:25:57.363Z,71.86
2019-01-22T12:28:26.827Z,71.99
2019-01-22T12:30:56.525Z,71.99
2019-01-22T12:33:26.113Z,72.03
2019-01-22T12:35:55.667Z,72.07
2019-01-22T12:38:25.241Z,72.09
2019-01-22T12:40:54.988Z,72.06
2019-01-22T12:43:24.586Z,72.11
2019-01-22T12:45:54.195Z,72.12
2019-01-22T12:48:23.838Z,72.18
2019-01-22T12:50:53.396Z,72.14
2019-01-22T12:53:22.997Z,72.16
2019-01-22T12:55:52.806Z,72.09
2019-01-22T12:58:22.379Z,72.06
2019-01-22T13:00:51.920Z,72.10
2019-01-22T13:03:21.516Z,72.14
2019-01-22T13:05:55.587Z,72.18
2019-01-22T13:08:25.155Z,72.24
2019-01-22T13:10:55.074Z,72.22
2019-01-22T13:13:24.680Z,72.20
2019-01-22T13:15:54.619Z,72.27
2019-01-22T13:18:24.273Z,72.33
2019-01-22T13:20:54.000Z,72.37
2019-01-22T13:23:23.566Z,72.45
2019-01-22T13:25:53.224Z,72.53
2019-01-22T13:28:22.842Z,72.39
2019-01-22T13:30:52.507Z,72.42
2019-01-22T13:33:22.073Z,72.54
2019-01-22T13:35:52.199Z,72.56
2019-01-22T13:38:21.051Z,72.57
2019-01-22T13:40:50.644Z,72.48
2019-01-22T13:43:20.304Z,72.19
2019-01-22T13:45:52.665Z,72.08
2019-01-22T13:48:22.507Z,71.96
2019-01-22T13:50:52.084Z,71.98
2019-01-22T13:53:21.731Z,71.96
2019-01-22T13:55:51.664Z,72.03
2019-01-22T13:58:21.277Z,72.17
2019-01-22T14:00:50.874Z,72.22
2019-01-22T14:03:19.692Z,72.22
2019-01-22T14:05:49.302Z,72.21
2019-01-22T14:08:18.868Z,72.29
2019-01-22T14:10:48.461Z,72.34
2019-01-22T14:13:18.018Z,72.34
2019-01-22T14:15:47.650Z,72.41
2019-01-22T14:18:17.403Z,72.34
2019-01-22T14:20:46.963Z,72.21
2019-01-22T14:23:16.574Z,72.17
2019-01-22T14:25:46.140Z,71.99
2019-01-22T14:28:15.810Z,72.01
2019-01-22T14:30:45.499Z,71.98
2019-01-22T14:33:15.088Z,71.97
2019-01-22T14:35:44.662Z,72.01
2019-01-22T14:38:14.250Z,72.07
2019-01-22T14:40:43.795Z,72.05
2019-01-22T14:43:13.369Z,72.14
2019-01-22T14:45:43.015Z,72.19
2019-01-22T14:48:12.673Z,72.29
2019-01-22T14:50:42.270Z,72.28
2019-01-22T14:53:11.890Z,72.37
2019-01-22T14:55:41.439Z,72.55
2019-01-22T14:58:11.156Z,72.74
2019-01-22T15:00:42.250Z,72.81
2019-01-22T15:03:11.860Z,72.94
2019-01-22T15:05:41.478Z,73.11
2019-01-22T15:08:11.066Z,73.19
2019-01-22T15:10:40.698Z,73.31
2019-01-22T15:13:10.386Z,73.49
2019-01-22T15:15:39.936Z,73.60
2019-01-22T15:18:09.540Z,73.75
2019-01-22T15:20:39.101Z,73.91
2019-01-22T15:23:08.728Z,74.06
2019-01-22T15:25:38.243Z,74.13
2019-01-22T15:28:08.002Z,74.21
2019-01-22T15:30:38.039Z,74.26
2019-01-22T15:33:07.955Z,74.42
2019-01-22T15:35:37.510Z,74.50
2019-01-22T15:38:07.263Z,74.56
2019-01-22T15:40:36.773Z,74.71
2019-01-22T15:43:06.492Z,74.89
2019-01-22T15:45:36.126Z,75.07
2019-01-22T15:48:05.825Z,75.21
2019-01-22T15:50:35.414Z,75.31
2019-01-22T15:53:05.326Z,75.42
2019-01-22T15:55:36.325Z,75.56
2019-01-22T15:58:06.238Z,75.79
2019-01-22T16:00:36.030Z,75.99
2019-01-22T16:03:07.113Z,76.21
2019-01-22T16:05:36.839Z,76.30
2019-01-22T16:08:06.681Z,76.44
2019-01-22T16:10:36.447Z,76.56
2019-01-22T16:13:06.226Z,76.61
2019-01-22T16:15:35.940Z,76.64
2019-01-22T16:18:05.953Z,76.70
2019-01-22T16:20:35.533Z,76.80
2019-01-22T16:23:05.266Z,76.94
2019-01-22T16:25:35.039Z,77.08
2019-01-22T16:28:04.636Z,77.24
2019-01-22T16:30:34.212Z,77.36
2019-01-22T16:33:03.778Z,77.46
2019-01-22T16:35:33.368Z,77.57
2019-01-22T16:38:02.929Z,77.67
2019-01-22T16:40:32.686Z,77.75
2019-01-22T16:43:02.257Z,77.87
2019-01-22T16:45:35.704Z,77.90
2019-01-22T16:48:05.402Z,78.01
2019-01-22T16:50:35.482Z,78.03
2019-01-22T16:53:07.236Z,78.10
2019-01-22T16:55:40.091Z,78.28
2019-01-22T16:58:09.820Z,78.41
2019-01-22T17:00:39.535Z,78.54
2019-01-22T17:03:10.224Z,78.67
2019-01-22T17:05:40.114Z,78.78
2019-01-22T17:08:09.756Z,78.88
2019-01-22T17:10:39.402Z,79.12
2019-01-22T17:13:08.959Z,79.25
2019-01-22T17:15:38.763Z,79.29
2019-01-22T17:18:09.124Z,79.34
2019-01-22T17:20:40.043Z,79.47
2019-01-22T17:23:09.745Z,79.55
2019-01-22T17:25:39.358Z,79.58
2019-01-22T17:28:08.985Z,79.63
2019-01-22T17:30:38.557Z,79.78
2019-01-22T17:33:10.440Z,79.89
2019-01-22T17:35:41.690Z,80.01
2019-01-22T17:38:11.271Z,80.16
2019-01-22T17:40:40.902Z,80.32
2019-01-22T17:43:10.546Z,80.42
2019-01-22T17:45:40.097Z,80.48
2019-01-22T17:48:10.000Z,80.61
2019-01-22T17:50:39.715Z,80.79
2019-01-22T17:53:09.360Z,80.92
2019-01-22T17:55:38.985Z,80.96
2019-01-22T17:58:08.568Z,81.10
2019-01-22T18:00:39.871Z,81.10
2019-01-22T18:03:09.618Z,81.17
2019-01-22T18:05:39.175Z,81.30
2019-01-22T18:08:09.885Z,81.43
2019-01-22T18:10:39.563Z,81.54
2019-01-22T18:13:09.152Z,81.58
2019-01-22T18:15:38.709Z,81.67
2019-01-22T18:18:08.358Z,81.73
2019-01-22T18:20:37.916Z,81.87
2019-01-22T18:23:07.512Z,81.97
2019-01-22T18:25:37.209Z,82.06
2019-01-22T18:28:06.864Z,82.21
2019-01-22T18:30:36.430Z,82.29
2019-01-22T18:33:06.085Z,82.36
2019-01-22T18:35:39.596Z,82.46
2019-01-22T18:38:09.303Z,82.52
2019-01-22T18:40:38.874Z,82.58
2019-01-22T18:43:08.464Z,82.61
2019-01-22T18:45:38.025Z,82.69
2019-01-22T18:48:07.684Z,82.77
2019-01-22T18:50:37.386Z,82.88
2019-01-22T18:53:07.055Z,82.92
2019-01-22T18:55:36.601Z,83.06
2019-01-22T18:58:06.326Z,83.08
2019-01-22T19:00:35.961Z,83.04
2019-01-22T19:03:06.075Z,83.05
2019-01-22T19:05:35.699Z,83.10
2019-01-22T19:08:05.594Z,83.08
2019-01-22T19:10:35.341Z,83.06
2019-01-22T19:13:04.967Z,83.04
2019-01-22T19:15:34.625Z,83.07
2019-01-22T19:18:04.346Z,83.09
2019-01-22T19:20:34.093Z,83.10
2019-01-22T19:23:03.652Z,83.14
2019-01-22T19:25:33.305Z,83.13
2019-01-22T19:28:02.937Z,83.20
2019-01-22T19:30:33.081Z,83.23
2019-01-22T19:33:02.648Z,83.31
2019-01-22T19:35:32.233Z,83.40
2019-01-22T19:38:01.789Z,83.48
2019-01-22T19:40:31.368Z,83.55
2019-01-22T19:43:00.996Z,83.61
2019-01-22T19:45:33.885Z,83.64
2019-01-22T19:48:03.442Z,83.70
2019-01-22T19:50:33.032Z,83.70
2019-01-22T19:53:02.655Z,83.69
2019-01-22T19:55:32.301Z,83.77
2019-01-22T19:58:01.860Z,83.77
2019-01-22T20:00:34.926Z,83.83
2019-01-22T20:03:05.792Z,83.87
2019-01-22T20:05:35.708Z,83.94
2019-01-22T20:08:06.147Z,83.97
2019-01-22T20:10:36.009Z,84.04
2019-01-22T20:13:05.903Z,83.99
2019-01-22T20:15:35.724Z,84.06
2019-01-22T20:18:05.718Z,84.17
2019-01-22T20:20:35.390Z,84.26
2019-01-22T20:23:05.280Z,84.29
2019-01-22T20:25:34.870Z,84.30
2019-01-22T20:28:04.565Z,84.35
2019-01-22T20:30:36.259Z,84.42
2019-01-22T20:33:06.054Z,84.48
2019-01-22T20:35:35.634Z,84.51
2019-01-22T20:38:05.727Z,84.55
2019-01-22T20:40:36.976Z,84.62
2019-01-22T20:43:06.632Z,84.64
2019-01-22T20:45:36.195Z,84.74
2019-01-22T20:48:06.090Z,84.80
2019-01-22T20:50:35.644Z,84.76
2019-01-22T20:53:05.463Z,84.78
2019-01-22T20:55:35.094Z,84.83
2019-01-22T20:58:04.807Z,84.86
2019-01-22T21:00:34.369Z,84.94
2019-01-22T21:03:03.951Z,85.01
2019-01-22T21:05:33.568Z,85.07
2019-01-22T21:08:03.149Z,85.03
2019-01-22T21:10:34.403Z,85.05
2019-01-22T21:13:04.327Z,85.09
2019-01-22T21:15:34.029Z,85.17
2019-01-22T21:18:03.730Z,85.22
2019-01-22T21:20:33.283Z,85.31
2019-01-22T21:23:02.867Z,85.39
2019-01-22T21:25:32.429Z,85.36
2019-01-22T21:28:02.163Z,85.41
2019-01-22T21:30:35.218Z,85.52
2019-01-22T21:33:06.472Z,85.56
2019-01-22T21:35:36.162Z,85.62
2019-01-22T21:38:06.332Z,85.68
2019-01-22T21:40:35.989Z,85.87
2019-01-22T21:43:05.831Z,85.96
2019-01-22T21:45:35.459Z,86.07
2019-01-22T21:48:05.584Z,86.16
2019-01-22T21:50:35.213Z,86.21
2019-01-22T21:53:05.556Z,86.24
2019-01-22T21:55:35.187Z,86.34
2019-01-22T21:58:08.590Z,86.52
2019-01-22T22:00:36.833Z,86.65
2019-01-22T22:03:06.421Z,86.69
2019-01-22T22:05:36.136Z,86.76
2019-01-22T22:08:05.875Z,86.84
2019-01-22T22:10:43.596Z,86.92
2019-01-22T22:13:13.263Z,87.01
2019-01-22T22:15:42.833Z,87.15
2019-01-22T22:18:12.408Z,87.30
2019-01-22T22:20:42.547Z,87.45
2019-01-22T22:23:12.307Z,87.50
2019-01-22T22:25:41.932Z,87.55
2019-01-22T22:28:15.217Z,87.66
2019-01-22T22:30:42.796Z,87.66
2019-01-22T22:33:12.354Z,87.82
2019-01-22T22:35:41.944Z,87.94
2019-01-22T22:38:11.528Z,88.02
2019-01-22T22:40:41.114Z,88.02
2019-01-22T22:43:10.666Z,88.15
2019-01-22T22:45:40.266Z,88.23
2019-01-22T22:48:09.809Z,88.29
2019-01-22T22:50:39.389Z,88.39
2019-01-22T22:53:08.967Z,88.45
2019-01-22T22:55:38.579Z,88.59
2019-01-22T22:58:08.128Z,88.72
2019-01-22T23:00:46.842Z,88.76
2019-01-22T23:03:17.163Z,88.84
2019-01-22T23:05:47.119Z,88.92
2019-01-22T23:08:16.704Z,88.98
2019-01-22T23:10:46.548Z,89.13
2019-01-22T23:13:16.105Z,89.18
2019-01-22T23:15:45.764Z,89.27
2019-01-22T23:18:15.425Z,89.34
2019-01-22T23:20:45.035Z,89.46
2019-01-22T23:23:14.627Z,89.55
2019-01-22T23:25:44.233Z,89.62
2019-01-22T23:28:13.825Z,89.70
2019-01-22T23:30:43.472Z,89.73
2019-01-22T23:33:13.026Z,89.86
2019-01-22T23:35:42.626Z,89.92
2019-01-22T23:38:12.532Z,89.99
2019-01-22T23:40:42.135Z,90.12
2019-01-22T23:43:11.720Z,90.16
2019-01-22T23:45:41.326Z,90.23
2019-01-22T23:48:10.912Z,90.29
2019-01-22T23:50:40.520Z,90.43
2019-01-22T23:53:10.075Z,90.46
2019-01-22T23:55:39.683Z,90.45
2019-01-22T23:58:09.264Z,90.56
